Kindersley Airport, Saskatchewan

Past 24 Hour Conditions

This table is a summary of hourly weather conditions for the past 24 hours. This summary includes the following parameters: temperature, humidity, dew point, wind speed and direction, air pressure, visibility and/or wind chill and humidex.
Date / Time
(CST)
Conditions Temp (°F) Humidity (%) Dew Point (°F) Wind (mph) Pressure (inches) Vis (mi) Wind Chill
16 April 2014
5:00 Light Snow 21   90 19 ENE 14 30.1 8 8
4:00 Light Snow 23 89 21 ENE 16 30.1 3 10
3:00 Light Snow 24 89 21 ENE 15 30.1 3 12
2:00 Light Snow 25 89 22 NE 14 30.1 3 13
1:00 Light Snow 26 90 23 ENE 14 30.0 6 14
00:00 Light Snow 27 91 24 ENE 13 30.0 3 15
15 April 2014
23:00 Cloudy 28 85 24 ENE 15 30.0 15 16
22:00 Cloudy 28 80 23 NE 15 30.0 15 17
21:00 Cloudy 29 80 24 NE 17 30.0 15 17
20:00 Cloudy 30 77 23 NE 19 29.9 15 17
19:00 Cloudy 31 73 24 NE 17 gust 23 29.9 15 20
18:00 Cloudy 34 68 24 NE 20 29.9 15 *
17:00 Mostly Cloudy 36 61 24 NE 22 gust 30 29.9 15 *
16:00 Partly Cloudy 42   44 21 NE 18 gust 27 29.8 15 *
15:00 Mainly Sunny 42   42 20 NNE 15 gust 24 29.8 15 *
14:00 Mainly Sunny 42   43 22 NE 15 gust 26 29.7 15 *
13:00 Mainly Sunny 42   42 21 NE 14 gust 23 29.7 15 *
12:00 Partly Cloudy 41 44 21 ENE 16 29.7 15 *
11:00 Partly Cloudy 40 50 23 NE 13 29.7 15 *
10:00 Partly Cloudy 36 58 23 ENE 15 29.7 15 *
9:00 Mainly Sunny 32 63 21 NE 15 29.7 15 *
8:00 Partly Cloudy 30 67 21 ENE 12 29.6 15 21
7:00 Partly Cloudy 29 69 20 E 10 29.6 15 20
6:00 Mostly Cloudy 30 68 21 ESE 8 29.6 15 23
5:00 Cloudy 32 63 21 ESE 10 29.7 15 23
N/A
Not available
 ↑ 
Highest temperature
 ↓ 
Lowest temperature
*
Value not significant.

If you require additional historical weather information, please visit Climate Data Online.